Time;durP1;ratioP1;P1;durP2;ratioP2;P2;SDS_P1;SDS_P2;PMS_P1;PMS_P2;Temp;Humidity;BMP_temperature;BMP_pressure;BME280_temperature;BME280_humidity;BME280_pressure;Samples;Min_cycle;Max_cycle;Signal;HPM_P1;HPM_P2
2023/01/30 00:01:37;;;;;;;5.18;1.60;;;18.10;1.00;;;;;;5031447;28;20124;-39
2023/01/30 00:04:04;;;;;;;5.03;1.73;;;18.00;1.00;;;;;;5031132;28;20088;-40
2023/01/30 00:06:31;;;;;;;7.78;1.60;;;18.00;1.00;;;;;;5031389;28;20048;-39
2023/01/30 00:08:58;;;;;;;4.00;1.38;;;18.00;1.00;;;;;;5031546;28;20120;-39
2023/01/30 00:11:27;;;;;;;4.82;1.45;;;17.90;1.00;;;;;;5034352;28;20408;-40
2023/01/30 00:13:54;;;;;;;4.40;1.30;;;17.90;1.00;;;;;;5035032;28;20050;-39
2023/01/30 00:16:20;;;;;;;3.67;1.10;;;17.90;1.00;;;;;;5034888;28;20120;-39
2023/01/30 00:18:47;;;;;;;3.67;1.05;;;17.80;1.00;;;;;;5035136;28;20046;-39
2023/01/30 00:21:14;;;;;;;3.95;1.48;;;17.80;1.00;;;;;;5034890;28;20069;-39
2023/01/30 00:23:42;;;;;;;3.90;1.23;;;17.80;1.00;;;;;;5034715;28;20087;-40
2023/01/30 00:26:09;;;;;;;4.07;1.77;;;17.70;1.00;;;;;;5034676;28;20045;-40
2023/01/30 00:28:38;;;;;;;4.43;1.42;;;17.70;1.00;;;;;;5034958;28;20559;-41
2023/01/30 00:31:05;;;;;;;6.55;1.58;;;17.70;1.00;;;;;;5034676;28;20048;-40
2023/01/30 00:33:32;;;;;;;4.55;1.90;;;17.70;1.00;;;;;;5034923;28;20099;-40
2023/01/30 00:36:01;;;;;;;5.28;1.75;;;17.60;1.00;;;;;;5034553;28;20041;-40
2023/01/30 00:38:28;;;;;;;2.97;1.25;;;17.60;1.00;;;;;;5016701;28;20045;-40
2023/01/30 00:40:55;;;;;;;4.72;1.50;;;17.50;1.00;;;;;;5034563;28;20125;-41
2023/01/30 00:49:00;;;;;;;5.10;1.52;;;17.50;1.00;;;;;;5034507;28;20076;-40
2023/01/30 00:51:27;;;;;;;5.80;1.63;;;17.40;1.00;;;;;;5016674;28;20072;-41
2023/01/30 00:53:54;;;;;;;5.78;2.13;;;17.40;1.00;;;;;;5016440;28;20057;-40
2023/01/30 00:56:21;;;;;;;4.88;1.08;;;17.40;1.00;;;;;;5016329;28;20046;-41
2023/01/30 00:58:47;;;;;;;5.78;1.52;;;17.30;1.00;;;;;;5034336;28;20485;-40
2023/01/30 01:01:14;;;;;;;5.70;1.05;;;17.30;1.00;;;;;;5016465;28;20041;-41
2023/01/30 01:03:41;;;;;;;5.57;1.38;;;17.30;1.00;;;;;;5033834;28;20116;-39
2023/01/30 01:06:08;;;;;;;6.97;2.10;;;17.30;1.00;;;;;;5034027;28;20045;-39
2023/01/30 01:08:35;;;;;;;5.88;1.60;;;17.20;1.00;;;;;;5034192;28;20515;-41
2023/01/30 01:11:02;;;;;;;8.27;2.15;;;17.20;1.00;;;;;;5034052;28;20072;-40
2023/01/30 01:13:29;;;;;;;9.02;1.55;;;17.20;1.00;;;;;;5015900;28;20049;-40
2023/01/30 01:15:55;;;;;;;9.10;2.50;;;17.20;1.00;;;;;;5033794;28;20044;-40
2023/01/30 01:18:22;;;;;;;7.07;1.27;;;17.10;1.00;;;;;;5016350;28;20156;-40
2023/01/30 01:20:49;;;;;;;8.07;1.63;;;17.10;1.00;;;;;;5033635;28;20049;-40
2023/01/30 01:23:16;;;;;;;6.22;1.35;;;17.10;1.00;;;;;;5033645;28;20037;-40
2023/01/30 01:25:43;;;;;;;7.75;1.80;;;17.10;1.00;;;;;;5033824;28;20386;-40
2023/01/30 01:28:11;;;;;;;6.38;1.80;;;17.00;1.00;;;;;;5033638;28;20087;-40
2023/01/30 01:30:38;;;;;;;7.72;2.55;;;17.00;1.00;;;;;;5033614;28;20041;-40
2023/01/30 01:33:04;;;;;;;5.78;1.40;;;17.00;1.00;;;;;;5033408;28;20064;-39
2023/01/30 01:35:31;;;;;;;9.82;1.58;;;17.00;1.00;;;;;;5015769;28;20045;-39
2023/01/30 01:37:59;;;;;;;10.95;1.88;;;16.90;1.00;;;;;;5015507;28;20041;-39
2023/01/30 01:43:20;;;;;;;6.13;1.67;;;16.90;1.00;;;;;;5033058;28;20040;-39
2023/01/30 01:45:52;;;;;;;6.72;1.58;;;16.90;1.00;;;;;;5033416;28;20041;-39
2023/01/30 01:48:30;;;;;;;7.20;1.65;;;16.80;1.00;;;;;;5033320;28;20041;-39
2023/01/30 01:51:02;;;;;;;6.30;1.92;;;16.80;1.00;;;;;;5033280;28;20124;-40
2023/01/30 01:53:33;;;;;;;5.93;1.83;;;16.80;1.00;;;;;;5015150;28;20045;-39
2023/01/30 01:56:02;;;;;;;5.00;1.77;;;16.80;1.00;;;;;;5015351;28;20375;-39
2023/01/30 01:58:37;;;;;;;9.07;1.88;;;16.70;1.00;;;;;;5015279;28;20042;-39
2023/01/30 02:01:04;;;;;;;9.35;2.20;;;16.70;1.00;;;;;;5015441;28;20103;-38
2023/01/30 02:03:35;;;;;;;5.82;1.70;;;16.70;1.00;;;;;;5032644;28;20041;-40
2023/01/30 02:06:03;;;;;;;12.00;1.92;;;16.70;1.00;;;;;;5015044;28;20054;-39
2023/01/30 02:08:37;;;;;;;6.45;1.88;;;16.70;1.00;;;;;;5033026;28;20038;-40
2023/01/30 02:11:33;;;;;;;6.57;2.92;;;16.60;1.00;;;;;;5015181;28;20056;-40
2023/01/30 02:14:04;;;;;;;4.68;1.42;;;16.60;1.00;;;;;;5014764;28;20460;-40
2023/01/30 02:16:31;;;;;;;7.53;1.80;;;16.60;1.00;;;;;;5014848;28;20041;-38
2023/01/30 02:18:58;;;;;;;7.35;1.75;;;16.50;1.00;;;;;;5032719;28;20046;-39
2023/01/30 02:22:16;;;;;;;5.63;1.70;;;16.50;1.00;;;;;;5014930;28;20456;-39
2023/01/30 02:25:11;;;;;;;9.55;2.33;;;16.50;1.00;;;;;;4984980;28;20041;-39
2023/01/30 02:27:49;;;;;;;10.00;2.53;;;16.50;1.00;;;;;;5009602;28;20054;-40
2023/01/30 02:30:53;;;;;;;13.02;2.80;;;16.50;1.00;;;;;;5015110;28;20060;-40
2023/01/30 02:33:29;;;;;;;12.63;2.08;;;16.40;1.00;;;;;;5031442;28;20037;-40
2023/01/30 02:36:20;;;;;;;8.38;2.08;;;16.40;1.00;;;;;;5014679;28;20456;-40
2023/01/30 02:39:04;;;;;;;8.80;1.75;;;16.40;1.00;;;;;;5014671;28;20037;-39
2023/01/30 02:41:58;;;;;;;8.07;1.93;;;16.40;1.00;;;;;;5032317;28;20485;-40
2023/01/30 02:44:51;;;;;;;7.93;1.92;;;16.40;1.00;;;;;;5014376;28;20730;-40
2023/01/30 02:47:39;;;;;;;7.45;1.65;;;16.30;1.00;;;;;;5014481;28;20463;-40
2023/01/30 02:50:12;;;;;;;6.78;1.85;;;16.30;1.00;;;;;;5032158;28;20120;-40
2023/01/30 02:52:39;;;;;;;6.95;2.00;;;16.30;1.00;;;;;;5032022;28;20049;-39
2023/01/30 02:55:21;;;;;;;7.47;1.98;;;16.30;1.00;;;;;;5032122;28;20059;-40
2023/01/30 02:57:48;;;;;;;7.57;2.35;;;16.20;1.00;;;;;;5014588;28;20041;-39
2023/01/30 03:00:29;;;;;;;12.80;2.28;;;16.20;1.00;;;;;;5014224;28;20115;-39
2023/01/30 03:03:08;;;;;;;6.75;1.88;;;16.20;1.00;;;;;;5031864;28;20067;-39
2023/01/30 03:05:55;;;;;;;6.97;2.13;;;16.20;1.00;;;;;;5014247;28;20049;-38
2023/01/30 03:08:28;;;;;;;8.55;2.30;;;16.20;1.00;;;;;;5014388;28;20045;-39
2023/01/30 03:10:59;;;;;;;9.10;1.77;;;16.20;1.00;;;;;;5014118;28;20054;-39
2023/01/30 03:13:50;;;;;;;5.85;2.55;;;16.10;1.00;;;;;;5014009;28;20041;-40
2023/01/30 03:16:27;;;;;;;9.18;2.50;;;16.10;1.00;;;;;;4997690;28;20042;-39
2023/01/30 03:18:54;;;;;;;5.63;1.98;;;16.10;1.00;;;;;;5014199;28;20543;-39
2023/01/30 03:21:21;;;;;;;7.30;1.95;;;16.10;1.00;;;;;;5013943;28;20394;-39
2023/01/30 03:23:51;;;;;;;11.70;2.78;;;16.10;1.00;;;;;;5013804;28;20452;-39
2023/01/30 03:26:31;;;;;;;8.23;1.75;;;16.10;1.00;;;;;;5013790;28;20509;-39
2023/01/30 03:29:00;;;;;;;9.75;1.27;;;16.00;1.00;;;;;;5014156;28;20054;-39
2023/01/30 03:31:27;;;;;;;6.38;1.77;;;16.00;1.00;;;;;;5031469;28;20045;-40
2023/01/30 03:33:55;;;;;;;8.55;1.80;;;16.00;1.00;;;;;;5013754;28;20143;-40
2023/01/30 03:36:22;;;;;;;9.20;1.40;;;16.00;1.00;;;;;;5013710;28;20088;-40
2023/01/30 03:38:51;;;;;;;13.15;2.50;;;16.00;1.00;;;;;;5014038;28;20502;-39
2023/01/30 03:41:19;;;;;;;7.20;1.98;;;16.00;1.00;;;;;;5013802;28;20042;-39
2023/01/30 03:43:46;;;;;;;11.90;2.50;;;16.00;1.00;;;;;;5031912;28;20046;-39
2023/01/30 03:46:14;;;;;;;7.93;2.00;;;15.90;1.00;;;;;;5017664;28;20080;-39
2023/01/30 03:48:41;;;;;;;7.07;2.28;;;15.90;1.00;;;;;;5017793;28;20041;-39
2023/01/30 03:51:11;;;;;;;7.90;2.10;;;15.90;1.00;;;;;;5017674;28;20413;-39
2023/01/30 03:53:37;;;;;;;8.05;1.88;;;15.90;1.00;;;;;;5017535;28;20042;-39
2023/01/30 03:56:04;;;;;;;6.97;1.63;;;15.90;1.00;;;;;;5035285;28;20405;-39
2023/01/30 03:58:34;;;;;;;9.77;2.28;;;15.90;1.00;;;;;;5017592;28;20042;-39
2023/01/30 04:01:13;;;;;;;6.32;1.42;;;15.80;1.00;;;;;;5017606;28;20049;-39
2023/01/30 04:03:40;;;;;;;6.95;2.30;;;15.80;1.00;;;;;;5017314;28;20038;-39
2023/01/30 04:06:07;;;;;;;6.10;1.85;;;15.80;1.00;;;;;;5017326;28;20041;-38
2023/01/30 04:08:34;;;;;;;8.68;2.05;;;15.80;1.00;;;;;;5017556;28;20100;-39
2023/01/30 04:11:02;;;;;;;6.85;1.95;;;15.80;1.00;;;;;;5017266;28;20069;-40
2023/01/30 04:13:28;;;;;;;6.15;2.20;;;15.80;1.00;;;;;;5017200;28;20049;-40
2023/01/30 04:16:15;;;;;;;9.63;2.90;;;15.80;1.00;;;;;;5017115;28;20045;-41
2023/01/30 04:19:00;;;;;;;6.47;1.98;;;15.70;1.00;;;;;;5035469;28;20092;-38
2023/01/30 04:21:30;;;;;;;8.50;2.45;;;15.70;1.00;;;;;;5017322;28;20046;-39
2023/01/30 04:23:57;;;;;;;11.20;2.05;;;15.70;1.00;;;;;;5016903;28;20064;-39
2023/01/30 04:26:24;;;;;;;8.20;1.63;;;15.70;1.00;;;;;;5034933;28;20492;-39
2023/01/30 04:28:51;;;;;;;7.13;1.88;;;15.70;1.00;;;;;;5017202;28;20277;-39
2023/01/30 04:31:18;;;;;;;6.20;1.63;;;15.70;1.00;;;;;;5016948;28;20053;-39
2023/01/30 04:34:04;;;;;;;12.15;2.22;;;15.70;1.00;;;;;;5016752;28;20503;-39
2023/01/30 04:36:31;;;;;;;4.57;1.75;;;15.60;1.00;;;;;;5016612;28;20501;-39
2023/01/30 04:38:58;;;;;;;9.50;2.20;;;15.60;1.00;;;;;;5016855;28;20048;-39
2023/01/30 04:41:28;;;;;;;10.05;2.33;;;15.60;1.00;;;;;;5017092;28;20063;-39
2023/01/30 04:43:58;;;;;;;8.93;2.58;;;15.60;1.00;;;;;;5016611;28;20073;-39
2023/01/30 04:46:37;;;;;;;5.85;2.03;;;15.60;1.00;;;;;;5016605;28;20068;-39
2023/01/30 04:49:04;;;;;;;9.07;2.72;;;15.60;1.00;;;;;;5016837;28;20056;-39
2023/01/30 04:51:31;;;;;;;7.18;2.35;;;15.60;1.00;;;;;;5034371;28;20064;-39
2023/01/30 04:53:59;;;;;;;9.10;2.58;;;15.60;1.00;;;;;;5034131;28;20554;-39
2023/01/30 04:56:26;;;;;;;6.13;2.28;;;15.50;1.00;;;;;;5015751;28;20046;-39
2023/01/30 04:58:52;;;;;;;8.60;1.98;;;15.50;1.00;;;;;;5016581;28;20045;-39
2023/01/30 05:01:22;;;;;;;8.15;1.63;;;15.50;1.00;;;;;;5016335;28;20046;-38
2023/01/30 05:03:52;;;;;;;8.18;2.30;;;15.50;1.00;;;;;;5016250;28;20049;-38
2023/01/30 05:06:20;;;;;;;7.00;1.80;;;15.50;1.00;;;;;;5034128;28;20107;-38
2023/01/30 05:08:51;;;;;;;8.18;2.30;;;15.50;1.00;;;;;;5034013;28;20053;-39
2023/01/30 05:11:19;;;;;;;6.93;1.63;;;15.50;1.00;;;;;;5031457;28;20065;-39
2023/01/30 05:13:46;;;;;;;6.43;1.80;;;15.50;1.00;;;;;;5033065;28;20056;-38
2023/01/30 05:16:15;;;;;;;7.38;2.53;;;15.40;1.00;;;;;;5033492;28;20053;-39
2023/01/30 05:18:42;;;;;;;15.48;2.60;;;15.40;1.00;;;;;;5034000;28;20489;-39
2023/01/30 05:21:19;;;;;;;11.77;1.92;;;15.40;1.00;;;;;;5033946;28;20059;-39
2023/01/30 05:23:46;;;;;;;8.70;2.35;;;15.40;1.00;;;;;;5033523;28;20112;-39
2023/01/30 05:26:14;;;;;;;13.98;2.42;;;15.40;1.00;;;;;;5033666;28;20048;-39
2023/01/30 05:28:41;;;;;;;14.40;2.13;;;15.40;1.00;;;;;;5033727;28;20055;-40
2023/01/30 05:31:12;;;;;;;10.23;2.10;;;15.40;1.00;;;;;;5032547;28;20057;-40
2023/01/30 05:33:40;;;;;;;13.85;1.42;;;15.40;1.00;;;;;;5033295;28;20072;-41
2023/01/30 05:36:21;;;;;;;14.63;2.50;;;15.40;1.00;;;;;;5033437;28;20459;-40
2023/01/30 05:38:48;;;;;;;9.13;3.17;;;15.30;1.00;;;;;;5011256;28;20046;-39
2023/01/30 05:41:15;;;;;;;8.05;2.92;;;15.30;1.00;;;;;;5013786;28;20405;-39
2023/01/30 05:43:43;;;;;;;20.77;2.80;;;15.30;1.00;;;;;;4995761;28;20038;-39
2023/01/30 05:46:11;;;;;;;13.20;3.00;;;15.30;1.00;;;;;;5013554;28;20049;-40
2023/01/30 05:48:38;;;;;;;10.93;2.13;;;15.30;1.00;;;;;;4994061;28;20122;-39
2023/01/30 05:51:05;;;;;;;9.73;1.95;;;15.30;1.00;;;;;;4993963;28;20118;-40
2023/01/30 05:53:36;;;;;;;6.32;2.03;;;15.30;1.00;;;;;;4998476;28;20120;-39
2023/01/30 05:56:04;;;;;;;16.35;2.33;;;15.20;1.00;;;;;;5002657;28;20053;-39
2023/01/30 05:58:32;;;;;;;9.18;2.15;;;15.20;1.00;;;;;;5013211;28;20041;-39
2023/01/30 06:01:03;;;;;;;12.43;2.17;;;15.20;1.00;;;;;;5013328;28;20445;-39
2023/01/30 06:03:30;;;;;;;10.68;1.70;;;15.20;1.00;;;;;;5012961;28;20383;-40
2023/01/30 06:05:57;;;;;;;11.77;2.00;;;15.20;1.00;;;;;;5013365;28;20034;-39
2023/01/30 06:08:24;;;;;;;9.90;2.05;;;15.20;1.00;;;;;;5012345;28;20130;-39
2023/01/30 06:10:52;;;;;;;15.02;3.58;;;15.20;1.00;;;;;;5013205;28;20046;-40
2023/01/30 06:13:18;;;;;;;12.20;2.53;;;15.20;1.00;;;;;;5012947;28;20489;-40
2023/01/30 06:15:45;;;;;;;11.63;2.72;;;15.20;1.00;;;;;;5013138;28;20042;-39
2023/01/30 06:18:12;;;;;;;16.98;2.70;;;15.20;1.00;;;;;;5012842;28;20046;-40
2023/01/30 06:20:39;;;;;;;13.88;2.97;;;15.10;1.00;;;;;;5011768;28;20053;-40
2023/01/30 06:23:05;;;;;;;8.57;1.80;;;15.10;1.00;;;;;;5012689;28;20044;-40
2023/01/30 06:25:32;;;;;;;6.80;1.80;;;15.10;1.00;;;;;;5013008;28;20038;-39
2023/01/30 06:27:59;;;;;;;12.02;2.75;;;15.10;1.00;;;;;;5012849;28;20056;-40
2023/01/30 06:30:26;;;;;;;9.50;2.30;;;15.10;1.00;;;;;;5012816;28;20149;-39
2023/01/30 06:32:52;;;;;;;10.68;2.75;;;15.10;1.00;;;;;;5012509;28;20104;-39
2023/01/30 06:35:19;;;;;;;12.25;2.25;;;15.10;1.00;;;;;;5012669;28;20100;-40
2023/01/30 06:37:46;;;;;;;11.10;2.47;;;15.10;1.00;;;;;;5012447;28;20402;-40
2023/01/30 06:40:13;;;;;;;8.50;2.00;;;15.10;1.00;;;;;;5012778;28;20417;-39
2023/01/30 06:42:45;;;;;;;10.95;2.53;;;15.00;1.00;;;;;;5012355;28;20081;-39
2023/01/30 06:45:17;;;;;;;10.43;3.38;;;15.00;1.00;;;;;;5012439;28;20042;-40
2023/01/30 06:47:49;;;;;;;12.73;1.80;;;15.00;1.00;;;;;;5012522;28;20046;-40
2023/01/30 06:50:17;;;;;;;8.25;2.20;;;15.00;1.00;;;;;;5012426;28;20494;-40
2023/01/30 06:52:46;;;;;;;12.73;1.65;;;15.00;1.00;;;;;;5012216;28;20441;-40
2023/01/30 06:55:21;;;;;;;12.05;3.30;;;15.00;1.00;;;;;;5011015;28;20052;-39
2023/01/30 06:57:48;;;;;;;7.30;2.70;;;15.00;1.00;;;;;;5012279;28;20046;-40
2023/01/30 07:00:19;;;;;;;8.68;2.45;;;14.90;1.00;;;;;;5012315;28;20042;-39
2023/01/30 07:02:46;;;;;;;16.95;2.90;;;14.90;1.00;;;;;;5012133;28;20045;-40
2023/01/30 07:05:13;;;;;;;8.55;1.58;;;14.90;1.00;;;;;;5010951;28;20042;-39
2023/01/30 07:07:40;;;;;;;13.05;2.45;;;14.90;1.00;;;;;;5012213;28;20050;-40
2023/01/30 07:10:07;;;;;;;9.27;1.75;;;14.90;1.00;;;;;;5012039;28;20050;-40
2023/01/30 07:12:35;;;;;;;9.88;1.98;;;14.90;1.00;;;;;;5010788;28;20057;-40
2023/01/30 07:15:04;;;;;;;12.55;3.65;;;14.90;1.00;;;;;;5011994;28;20050;-40
2023/01/30 07:17:31;;;;;;;6.18;1.52;;;14.90;1.00;;;;;;5011914;28;20045;-40
2023/01/30 07:19:58;;;;;;;14.15;2.38;;;14.90;1.00;;;;;;5011776;28;20045;-40
2023/01/30 07:22:24;;;;;;;13.05;1.75;;;14.80;1.00;;;;;;5011743;28;20084;-40
2023/01/30 07:24:51;;;;;;;8.63;2.13;;;14.80;1.00;;;;;;5011798;28;20231;-40
2023/01/30 07:27:18;;;;;;;7.45;1.73;;;14.80;1.00;;;;;;5010808;28;20041;-41
2023/01/30 07:29:45;;;;;;;6.70;2.58;;;14.80;1.00;;;;;;5009802;28;20046;-40
2023/01/30 07:32:17;;;;;;;10.05;1.70;;;14.80;1.00;;;;;;5008739;28;20363;-39
2023/01/30 07:34:44;;;;;;;8.17;1.87;;;14.80;1.00;;;;;;5007765;28;20052;-39
2023/01/30 07:37:11;;;;;;;10.13;2.20;;;14.80;1.00;;;;;;5006701;28;20042;-40
2023/01/30 07:39:38;;;;;;;7.57;1.75;;;14.80;1.00;;;;;;5007086;28;20041;-40
2023/01/30 07:42:05;;;;;;;8.05;1.48;;;14.80;1.00;;;;;;5008184;28;20038;-40
2023/01/30 07:44:35;;;;;;;5.35;1.88;;;14.80;1.00;;;;;;5004655;28;20038;-40
2023/01/30 07:47:02;;;;;;;8.98;1.73;;;14.80;1.00;;;;;;5007981;28;20038;-40
2023/01/30 07:49:29;;;;;;;12.98;2.30;;;14.70;1.00;;;;;;5006100;28;20455;-40
2023/01/30 07:51:55;;;;;;;12.35;2.10;;;14.70;1.00;;;;;;4986845;28;20543;-40
2023/01/30 07:54:22;;;;;;;9.52;2.15;;;14.70;1.00;;;;;;5010687;28;20046;-40
2023/01/30 07:56:49;;;;;;;9.93;2.28;;;14.70;1.00;;;;;;5011727;28;20050;-40
2023/01/30 07:59:16;;;;;;;10.90;2.72;;;14.70;1.00;;;;;;5011660;28;20038;-40
2023/01/30 08:01:42;;;;;;;7.35;1.70;;;14.70;1.00;;;;;;5011747;28;20080;-40
2023/01/30 08:04:09;;;;;;;11.10;2.47;;;14.70;1.00;;;;;;5011239;28;20054;-40
2023/01/30 08:06:37;;;;;;;10.63;2.47;;;14.70;1.00;;;;;;5011489;28;20054;-40
2023/01/30 08:09:05;;;;;;;9.55;1.98;;;14.70;1.00;;;;;;5011500;28;20060;-40
2023/01/30 08:11:32;;;;;;;9.88;2.25;;;14.60;1.00;;;;;;5010331;28;20037;-40
2023/01/30 08:13:59;;;;;;;8.80;2.10;;;14.60;1.00;;;;;;5011238;28;20045;-40
2023/01/30 08:16:26;;;;;;;8.25;2.03;;;14.60;1.00;;;;;;5010278;28;20104;-39
2023/01/30 08:18:53;;;;;;;7.53;2.20;;;14.60;1.00;;;;;;5011192;28;20045;-40
2023/01/30 08:21:19;;;;;;;8.82;2.33;;;14.60;1.00;;;;;;5011576;28;20042;-40
2023/01/30 08:23:46;;;;;;;12.07;2.53;;;14.60;1.00;;;;;;5011097;28;20042;-40
2023/01/30 08:26:13;;;;;;;9.40;2.53;;;14.60;1.00;;;;;;5011333;28;20041;-40
2023/01/30 08:28:40;;;;;;;8.88;2.15;;;14.60;1.00;;;;;;5011390;28;20069;-40
2023/01/30 08:31:11;;;;;;;8.18;2.28;;;14.60;1.00;;;;;;5012335;28;20121;-40
2023/01/30 08:33:38;;;;;;;10.02;1.95;;;14.60;1.00;;;;;;5014586;28;20447;-39
2023/01/30 08:36:05;;;;;;;9.02;2.38;;;14.60;1.00;;;;;;5014945;28;20085;-39
2023/01/30 08:38:32;;;;;;;12.90;1.83;;;14.60;1.00;;;;;;5014497;28;20446;-40
2023/01/30 08:40:59;;;;;;;6.30;1.67;;;14.60;1.00;;;;;;5014921;28;20068;-39
2023/01/30 08:43:27;;;;;;;8.65;2.17;;;14.50;1.00;;;;;;5014473;28;20057;-40
2023/01/30 08:45:54;;;;;;;9.63;3.60;;;14.50;1.00;;;;;;5014562;28;20538;-39
2023/01/30 08:48:22;;;;;;;6.00;1.58;;;14.50;1.00;;;;;;5014682;28;20049;-40
2023/01/30 08:50:53;;;;;;;10.23;3.08;;;14.50;1.00;;;;;;5014619;28;20042;-40
2023/01/30 08:53:20;;;;;;;6.18;1.98;;;14.50;1.00;;;;;;5014274;28;20073;-40
2023/01/30 08:55:51;;;;;;;8.55;1.42;;;14.50;1.00;;;;;;5014596;28;20053;-40
2023/01/30 08:58:21;;;;;;;10.05;2.75;;;14.50;1.00;;;;;;5014389;28;20053;-39
2023/01/30 09:00:49;;;;;;;14.27;2.72;;;14.50;1.00;;;;;;5014454;28;20104;-40
2023/01/30 09:03:17;;;;;;;10.82;2.60;;;14.50;1.00;;;;;;5013960;28;20533;-39
2023/01/30 09:05:44;;;;;;;8.18;1.90;;;14.50;1.00;;;;;;5014446;28;20037;-40
2023/01/30 09:08:11;;;;;;;11.95;2.10;;;14.50;1.00;;;;;;5014332;28;20191;-40
2023/01/30 09:10:38;;;;;;;12.70;3.35;;;14.50;1.00;;;;;;5014337;28;20415;-40
2023/01/30 09:13:08;;;;;;;10.95;2.72;;;14.50;1.00;;;;;;5013818;28;20049;-40
2023/01/30 09:15:35;;;;;;;11.90;1.77;;;14.50;1.00;;;;;;5014216;28;20124;-39
2023/01/30 09:18:03;;;;;;;6.38;1.98;;;14.50;1.00;;;;;;5013952;28;20046;-40
2023/01/30 09:20:30;;;;;;;13.43;3.00;;;14.50;1.00;;;;;;5014008;28;20501;-39
2023/01/30 09:22:57;;;;;;;7.55;2.25;;;14.50;1.00;;;;;;5013861;28;20515;-40
2023/01/30 09:25:24;;;;;;;9.95;2.75;;;14.50;1.00;;;;;;5013909;28;20049;-40
2023/01/30 09:27:51;;;;;;;14.13;3.13;;;14.40;1.00;;;;;;5013900;28;20045;-40
2023/01/30 09:30:19;;;;;;;18.40;3.00;;;14.40;1.00;;;;;;5013819;28;20057;-40
2023/01/30 09:32:47;;;;;;;6.32;1.50;;;14.40;1.00;;;;;;5013521;28;20080;-40
2023/01/30 09:35:14;;;;;;;13.25;2.88;;;14.40;1.00;;;;;;5013856;28;20042;-41
2023/01/30 09:37:48;;;;;;;11.65;2.00;;;14.40;1.00;;;;;;5013613;28;20057;-40
2023/01/30 09:40:25;;;;;;;7.78;2.05;;;14.40;1.00;;;;;;5013566;28;20411;-40
2023/01/30 09:43:00;;;;;;;12.65;2.22;;;14.40;1.00;;;;;;5013189;28;20046;-40
2023/01/30 09:45:42;;;;;;;11.80;3.00;;;14.40;1.00;;;;;;5013721;28;20072;-40
2023/01/30 09:48:16;;;;;;;14.77;2.63;;;14.40;1.00;;;;;;5013419;28;20136;-41
2023/01/30 09:50:49;;;;;;;11.10;2.22;;;14.40;1.00;;;;;;5013518;28;20137;-40
2023/01/30 09:53:17;;;;;;;;;;;14.40;1.00;;;;;;5013694;28;20068;-40
2023/01/30 09:55:45;;;;;;;5.47;1.70;;;14.40;1.00;;;;;;5012206;28;20337;-39
2023/01/30 09:58:21;;;;;;;9.45;2.00;;;14.40;1.00;;;;;;5013172;28;20041;-40
2023/01/30 10:00:53;;;;;;;8.05;2.47;;;14.40;1.00;;;;;;5013342;28;20085;-40
2023/01/30 10:03:27;;;;;;;9.57;1.63;;;14.40;1.00;;;;;;5012929;28;20084;-40
2023/01/30 10:06:01;;;;;;;11.07;2.35;;;14.50;1.00;;;;;;5013317;28;20038;-41
2023/01/30 10:08:51;;;;;;;10.15;1.95;;;14.50;1.00;;;;;;5013229;28;20053;-39
2023/01/30 10:11:37;;;;;;;9.98;2.65;;;14.50;1.00;;;;;;5013079;28;20116;-39
2023/01/30 10:14:32;;;;;;;10.20;1.75;;;14.50;1.00;;;;;;5012701;28;20046;-39
2023/01/30 10:17:14;;;;;;;10.65;2.22;;;14.50;1.00;;;;;;5013041;28;20046;-40
2023/01/30 10:20:20;;;;;;;13.60;2.00;;;14.50;1.00;;;;;;5012903;28;20081;-40
2023/01/30 10:23:20;;;;;;;6.40;2.17;;;14.50;1.00;;;;;;5012699;28;20052;-40
2023/01/30 10:25:54;;;;;;;10.27;2.70;;;14.50;1.00;;;;;;5012934;28;20042;-40
2023/01/30 10:28:28;;;;;;;7.70;2.72;;;14.50;1.00;;;;;;5012802;28;20115;-40
2023/01/30 10:31:08;;;;;;;9.27;3.30;;;14.50;1.00;;;;;;5012943;28;20077;-40
2023/01/30 10:33:50;;;;;;;15.90;2.90;;;14.50;1.00;;;;;;5012536;28;20050;-39
2023/01/30 10:36:41;;;;;;;9.80;2.88;;;14.50;1.00;;;;;;5012685;28;20510;-40
2023/01/30 10:39:36;;;;;;;7.47;2.15;;;14.60;1.00;;;;;;5012495;28;20073;-39
2023/01/30 10:42:49;;;;;;;10.00;2.60;;;14.60;1.00;;;;;;5012626;28;20080;-39
2023/01/30 10:45:20;;;;;;;9.55;2.05;;;14.60;1.00;;;;;;4982586;28;20058;-39
2023/01/30 10:47:52;;;;;;;9.68;2.65;;;14.60;1.00;;;;;;5012539;28;20084;-39
2023/01/30 10:50:27;;;;;;;9.25;2.35;;;14.60;1.00;;;;;;5011306;28;20486;-40
2023/01/30 10:53:37;;;;;;;12.73;2.63;;;14.60;1.00;;;;;;5012167;28;20049;-40
2023/01/30 10:56:07;;;;;;;8.88;2.80;;;14.60;1.00;;;;;;4995715;28;20399;-39
2023/01/30 10:59:07;;;;;;;11.50;3.17;;;14.70;1.00;;;;;;5012345;28;20038;-40
2023/01/30 11:01:43;;;;;;;8.75;2.28;;;14.70;1.00;;;;;;5012252;28;20046;-39
2023/01/30 11:04:28;;;;;;;9.13;3.03;;;14.70;1.00;;;;;;5011990;28;20116;-39
2023/01/30 11:06:56;;;;;;;10.10;2.20;;;14.70;1.00;;;;;;5012273;28;20504;-40
2023/01/30 11:09:23;;;;;;;7.07;2.42;;;14.80;1.00;;;;;;5012252;28;20057;-40
2023/01/30 11:11:52;;;;;;;6.75;1.77;;;14.70;1.00;;;;;;5012140;28;20125;-40
2023/01/30 11:14:19;;;;;;;10.60;3.22;;;14.80;1.00;;;;;;5011774;28;20053;-40
2023/01/30 11:16:53;;;;;;;9.95;2.22;;;14.80;1.00;;;;;;5012184;28;20292;-40
2023/01/30 11:19:30;;;;;;;11.45;2.22;;;14.80;1.00;;;;;;5011798;28;20034;-40
2023/01/30 11:22:03;;;;;;;10.40;1.85;;;14.80;1.00;;;;;;5012083;28;20044;-40
2023/01/30 11:24:43;;;;;;;12.05;2.60;;;14.80;1.00;;;;;;5011804;28;20483;-40
2023/01/30 11:27:15;;;;;;;12.05;2.72;;;14.80;1.00;;;;;;5012113;28;20042;-40
2023/01/30 11:29:42;;;;;;;9.90;2.97;;;14.80;1.00;;;;;;5011959;28;20125;-40
2023/01/30 11:32:22;;;;;;;11.07;2.33;;;14.80;1.00;;;;;;5011948;28;20052;-40
2023/01/30 11:35:07;;;;;;;12.10;3.90;;;14.80;1.00;;;;;;5011729;28;20125;-39
2023/01/30 11:37:37;;;;;;;11.50;2.05;;;14.90;1.00;;;;;;5011660;28;20054;-40
2023/01/30 11:40:24;;;;;;;12.30;3.55;;;14.80;1.00;;;;;;5011855;28;20108;-39
2023/01/30 11:43:12;;;;;;;12.48;2.92;;;14.80;1.00;;;;;;5011405;28;20046;-39
2023/01/30 11:45:49;;;;;;;11.00;3.08;;;14.90;1.00;;;;;;5011792;28;20076;-40
2023/01/30 11:48:19;;;;;;;13.45;2.70;;;14.90;1.00;;;;;;5010637;28;20653;-39
2023/01/30 11:51:08;;;;;;;8.60;3.10;;;14.90;1.00;;;;;;5011793;28;20520;-39
2023/01/30 11:53:43;;;;;;;8.50;2.78;;;14.90;1.00;;;;;;5011313;28;20100;-39
2023/01/30 11:56:20;;;;;;;12.05;2.90;;;14.90;1.00;;;;;;5010533;28;20057;-40
2023/01/30 11:59:13;;;;;;;13.48;3.13;;;14.90;1.00;;;;;;5011581;28;20045;-40
2023/01/30 12:01:40;;;;;;;10.85;2.13;;;14.90;1.00;;;;;;4971904;28;20088;-40
2023/01/30 12:04:11;;;;;;;11.02;2.85;;;14.90;1.00;;;;;;5011443;28;20408;-39
2023/01/30 12:06:41;;;;;;;10.48;2.65;;;14.90;1.00;;;;;;5013467;28;20092;-40
2023/01/30 12:09:36;;;;;;;8.10;2.50;;;14.90;1.00;;;;;;5015290;28;20053;-39
2023/01/30 12:12:50;;;;;;;11.18;2.47;;;14.90;1.00;;;;;;5015279;28;20052;-40
2023/01/30 12:15:49;;;;;;;13.90;2.58;;;14.90;1.00;;;;;;5008877;28;20429;-39
2023/01/30 12:18:28;;;;;;;7.28;2.25;;;14.90;1.00;;;;;;4999724;28;20054;-39
2023/01/30 12:20:58;;;;;;;8.82;2.35;;;14.90;1.00;;;;;;5015251;28;20046;-39
2023/01/30 12:23:39;;;;;;;13.63;2.75;;;14.90;1.00;;;;;;5014732;28;20042;-39
2023/01/30 12:26:19;;;;;;;11.48;3.47;;;14.90;1.00;;;;;;5014949;28;20038;-39
2023/01/30 12:29:23;;;;;;;9.88;2.72;;;14.90;1.00;;;;;;5014969;28;20096;-39
2023/01/30 12:32:01;;;;;;;12.00;2.67;;;14.90;1.00;;;;;;5015111;28;20046;-39
2023/01/30 12:34:29;;;;;;;12.88;2.83;;;14.90;1.00;;;;;;5014582;28;20049;-39
2023/01/30 12:37:24;;;;;;;10.10;2.90;;;14.90;1.00;;;;;;5014715;28;20382;-40
2023/01/30 12:39:59;;;;;;;8.68;2.30;;;14.80;1.00;;;;;;5014802;28;20076;-40
2023/01/30 12:42:51;;;;;;;10.57;3.35;;;14.80;1.00;;;;;;5014553;28;20042;-40
2023/01/30 12:45:26;;;;;;;10.52;2.85;;;14.80;1.00;;;;;;5014755;28;20080;-39
2023/01/30 12:48:04;;;;;;;14.75;3.10;;;14.80;1.00;;;;;;5014636;28;20112;-39
2023/01/30 12:50:59;;;;;;;8.63;2.83;;;14.80;1.00;;;;;;5014723;28;20390;-39
2023/01/30 12:53:37;;;;;;;8.32;1.83;;;14.80;1.00;;;;;;4988609;28;20069;-39
2023/01/30 12:56:36;;;;;;;11.13;3.55;;;14.80;1.00;;;;;;5014512;28;20116;-39
2023/01/30 12:59:14;;;;;;;14.38;3.28;;;14.80;1.00;;;;;;5014429;28;20460;-39
2023/01/30 13:01:57;;;;;;;10.15;2.17;;;14.80;1.00;;;;;;5014500;28;20042;-39
2023/01/30 13:04:24;;;;;;;9.50;2.83;;;14.80;1.00;;;;;;5014041;28;20344;-39
2023/01/30 13:06:55;;;;;;;11.63;3.60;;;14.80;1.00;;;;;;5014228;28;20099;-39
2023/01/30 13:09:43;;;;;;;11.25;3.40;;;14.80;1.00;;;;;;5014235;28;20041;-40
2023/01/30 13:12:36;;;;;;;7.65;2.42;;;14.80;1.00;;;;;;5014131;28;20517;-40
2023/01/30 13:15:39;;;;;;;12.53;3.50;;;14.80;1.00;;;;;;5011736;28;20064;-40
2023/01/30 13:18:15;;;;;;;11.75;3.38;;;14.70;1.00;;;;;;4989050;28;20082;-40
2023/01/30 13:21:00;;;;;;;8.43;2.53;;;14.70;1.00;;;;;;5014082;28;20038;-39
2023/01/30 13:23:40;;;;;;;8.23;3.10;;;14.80;1.00;;;;;;5013766;28;20116;-40
2023/01/30 13:26:11;;;;;;;12.18;2.40;;;14.70;1.00;;;;;;5014173;28;20038;-40
2023/01/30 13:28:52;;;;;;;8.55;2.10;;;14.70;1.00;;;;;;5013831;28;20046;-39
2023/01/30 13:31:23;;;;;;;11.27;2.70;;;14.70;1.00;;;;;;5013800;28;20103;-39